createdAt,value
2023-04-07T00:01:04.781Z,101136.06
2023-04-07T00:03:34.130Z,101134.94
2023-04-07T00:06:02.061Z,101142.69
2023-04-07T00:08:29.943Z,101124.34
2023-04-07T00:10:58.817Z,101143.72
2023-04-07T00:13:26.868Z,101134.06
2023-04-07T00:15:55.325Z,101135.91
2023-04-07T00:18:23.576Z,101136.75
2023-04-07T00:20:51.396Z,101135.16
2023-04-07T00:23:20.239Z,101140.38
2023-04-07T00:25:52.933Z,101136.75
2023-04-07T00:28:20.781Z,101136.31
2023-04-07T00:30:49.098Z,101136.66
2023-04-07T00:33:17.008Z,101137.44
2023-04-07T00:35:45.405Z,101138.06
2023-04-07T00:38:13.900Z,101143.19
2023-04-07T00:40:41.783Z,101136.84
2023-04-07T00:43:09.581Z,101143.97
2023-04-07T00:45:38.210Z,101135.41
2023-04-07T00:48:06.696Z,101138.22
2023-04-07T00:50:34.509Z,101138.25
2023-04-07T00:53:03.018Z,101120.09
2023-04-07T00:55:31.321Z,101137.00
2023-04-07T00:57:59.158Z,101128.19
2023-04-07T01:00:28.397Z,101132.19
2023-04-07T01:03:02.456Z,101128.94
2023-04-07T01:05:47.604Z,101131.84
2023-04-07T01:08:33.784Z,101131.66
2023-04-07T01:11:44.146Z,101139.88
2023-04-07T01:14:19.886Z,101134.31
2023-04-07T01:16:55.920Z,101137.12
2023-04-07T01:19:36.372Z,101132.78
2023-04-07T01:22:13.177Z,101132.44
2023-04-07T01:25:03.035Z,101146.53
2023-04-07T01:27:47.328Z,101137.41
2023-04-07T01:30:17.672Z,101140.81
2023-04-07T01:32:51.187Z,101140.78
2023-04-07T01:35:20.399Z,101142.16
2023-04-07T01:37:50.892Z,101137.75
2023-04-07T01:40:19.429Z,101140.06
2023-04-07T01:42:49.052Z,101144.38
2023-04-07T01:45:18.630Z,101139.34
2023-04-07T01:47:48.121Z,101145.13
2023-04-07T01:50:17.279Z,101148.00
2023-04-07T01:52:46.569Z,101145.87
2023-04-07T01:55:14.758Z,101145.06
2023-04-07T01:57:43.624Z,101144.03
2023-04-07T02:00:12.929Z,101138.44
2023-04-07T02:02:47.080Z,101145.94
2023-04-07T02:05:21.170Z,101140.66
2023-04-07T02:08:07.396Z,101142.47
2023-04-07T02:10:39.374Z,101143.13
2023-04-07T02:13:10.902Z,101144.75
2023-04-07T02:15:41.926Z,101149.84
2023-04-07T02:18:11.106Z,101147.59
2023-04-07T02:20:41.659Z,101151.87
2023-04-07T02:23:12.919Z,101148.91
2023-04-07T02:25:42.406Z,101153.34
2023-04-07T02:28:10.671Z,101152.22
2023-04-07T02:30:38.522Z,101140.78
2023-04-07T02:33:06.366Z,101146.38
2023-04-07T02:35:34.591Z,101155.34
2023-04-07T02:38:03.188Z,101155.03
2023-04-07T02:40:31.242Z,101145.94
2023-04-07T02:42:59.842Z,101168.72
2023-04-07T02:45:27.709Z,101161.06
2023-04-07T02:47:55.642Z,101156.56
2023-04-07T02:50:23.914Z,101159.00
2023-04-07T02:52:51.786Z,101165.53
2023-04-07T02:55:19.719Z,101162.84
2023-04-07T02:57:48.035Z,101169.28
2023-04-07T03:00:16.973Z,101167.62
2023-04-07T03:02:46.085Z,101165.13
2023-04-07T03:05:14.861Z,101164.12
2023-04-07T03:07:42.755Z,101164.09
2023-04-07T03:10:11.749Z,101167.31
2023-04-07T03:12:39.953Z,101168.34
2023-04-07T03:15:08.614Z,101169.88
2023-04-07T03:17:37.431Z,101169.37
2023-04-07T03:20:06.913Z,101176.09
2023-04-07T03:22:36.598Z,101175.94
2023-04-07T03:25:08.153Z,101178.34
2023-04-07T03:27:36.383Z,101186.69
2023-04-07T03:30:05.126Z,101185.00
2023-04-07T03:32:33.003Z,101178.69
2023-04-07T03:35:01.274Z,101185.38
2023-04-07T03:37:30.688Z,101183.28
2023-04-07T03:39:59.904Z,101187.66
2023-04-07T03:42:28.299Z,101190.13
2023-04-07T03:44:57.351Z,101190.41
2023-04-07T03:47:25.824Z,101194.47
2023-04-07T03:49:55.184Z,101196.34
2023-04-07T03:52:23.549Z,101199.09
2023-04-07T03:54:52.598Z,101197.44
2023-04-07T03:57:22.363Z,101197.44
2023-04-07T03:59:51.547Z,101202.94
2023-04-07T04:02:19.870Z,101203.34
2023-04-07T04:04:49.690Z,101203.00
2023-04-07T04:07:18.099Z,101202.69
2023-04-07T04:09:46.209Z,101194.62
2023-04-07T04:12:14.454Z,101207.19
2023-04-07T04:14:43.315Z,101203.25
2023-04-07T04:17:11.480Z,101202.97
2023-04-07T04:19:40.304Z,101205.41
2023-04-07T04:22:10.480Z,101212.31
2023-04-07T04:24:39.618Z,101206.59
2023-04-07T04:27:07.914Z,101206.13
2023-04-07T04:29:37.132Z,101212.16
2023-04-07T04:32:05.952Z,101213.94
2023-04-07T04:34:35.412Z,101209.28
2023-04-07T04:37:03.402Z,101209.22
2023-04-07T04:39:31.139Z,101211.25
2023-04-07T04:42:00.033Z,101218.34
2023-04-07T04:44:31.067Z,101210.50
2023-04-07T04:47:01.175Z,101214.88
2023-04-07T04:49:29.567Z,101225.41
2023-04-07T04:52:00.144Z,101215.81
2023-04-07T04:54:33.427Z,101223.66
2023-04-07T04:57:02.036Z,101217.28
2023-04-07T04:59:30.524Z,101226.50
2023-04-07T05:01:58.995Z,101225.84
2023-04-07T05:04:28.914Z,101229.13
2023-04-07T05:06:57.787Z,101197.72
2023-04-07T05:09:26.732Z,101233.28
2023-04-07T05:11:54.495Z,101229.03
2023-04-07T05:14:23.323Z,101237.09
2023-04-07T05:16:53.226Z,101225.50
2023-04-07T05:19:21.560Z,101243.41
2023-04-07T05:21:50.800Z,101229.75
2023-04-07T05:24:20.677Z,101234.53
2023-04-07T05:26:51.798Z,101233.31
2023-04-07T05:29:19.613Z,101235.62
2023-04-07T05:31:47.475Z,101233.50
2023-04-07T05:34:15.974Z,101239.97
2023-04-07T05:36:44.059Z,101243.00
2023-04-07T05:39:12.004Z,101240.37
2023-04-07T05:41:40.885Z,101244.56
2023-04-07T05:44:09.686Z,101244.56
2023-04-07T05:46:37.915Z,101242.19
2023-04-07T05:49:18.877Z,101242.12
2023-04-07T05:51:49.125Z,101239.44
2023-04-07T05:54:17.666Z,101253.13
2023-04-07T05:56:45.898Z,101245.34
2023-04-07T05:59:14.065Z,101248.75
2023-04-07T06:01:43.368Z,101249.47
2023-04-07T06:04:12.067Z,101243.19
2023-04-07T06:06:40.206Z,101249.47
2023-04-07T06:09:08.335Z,101244.16
2023-04-07T06:11:37.130Z,101240.03
2023-04-07T06:14:05.014Z,101235.03
2023-04-07T06:16:32.955Z,101254.84
2023-04-07T06:19:02.125Z,101252.16
2023-04-07T06:21:31.019Z,101245.81
2023-04-07T06:23:59.119Z,101243.87
2023-04-07T06:26:28.697Z,101243.00
2023-04-07T06:28:56.873Z,101241.16
2023-04-07T06:31:25.183Z,101247.56
2023-04-07T06:33:53.748Z,101250.94
2023-04-07T06:36:22.072Z,101249.25
2023-04-07T06:38:50.071Z,101245.88
2023-04-07T06:41:18.370Z,101253.50
2023-04-07T06:43:51.748Z,101258.53
2023-04-07T06:46:20.555Z,101266.63
2023-04-07T06:48:48.293Z,101248.88
2023-04-07T06:51:16.344Z,101245.12
2023-04-07T06:53:44.656Z,101247.34
2023-04-07T06:56:12.769Z,101249.88
2023-04-07T06:58:40.912Z,101247.72
2023-04-07T07:01:09.420Z,101241.19
2023-04-07T07:03:37.390Z,101248.94
2023-04-07T07:06:05.898Z,101244.09
2023-04-07T07:08:34.273Z,101248.72
2023-04-07T07:11:02.022Z,101245.00
2023-04-07T07:13:29.878Z,101244.94
2023-04-07T07:15:58.319Z,101250.59
2023-04-07T07:18:26.494Z,101239.50
2023-04-07T07:20:54.388Z,101243.53
2023-04-07T07:23:22.543Z,101249.19
2023-04-07T07:25:50.371Z,101244.94
2023-04-07T07:28:18.710Z,101237.81
2023-04-07T07:30:46.995Z,101240.66
2023-04-07T07:33:14.863Z,101247.94
2023-04-07T07:35:42.848Z,101246.03
2023-04-07T07:38:12.517Z,101248.66
2023-04-07T07:40:40.427Z,101253.16
2023-04-07T07:43:08.251Z,101242.63
2023-04-07T07:45:36.442Z,101255.13
2023-04-07T07:48:04.393Z,101241.88
2023-04-07T07:50:32.194Z,101246.00
2023-04-07T07:53:00.514Z,101254.69
2023-04-07T07:55:29.642Z,101248.38
2023-04-07T07:57:57.788Z,101265.53
2023-04-07T08:00:26.241Z,101248.75
2023-04-07T08:02:54.635Z,101245.94
2023-04-07T08:05:22.584Z,101263.44
2023-04-07T08:07:53.509Z,101239.66
2023-04-07T08:10:23.623Z,101241.16
2023-04-07T08:12:51.778Z,101248.22
2023-04-07T08:15:19.611Z,101249.59
2023-04-07T08:17:47.841Z,101246.16
2023-04-07T08:20:16.616Z,101247.44
2023-04-07T08:22:44.502Z,101243.47
2023-04-07T08:25:12.897Z,101235.31
2023-04-07T08:27:40.811Z,101236.09
2023-04-07T08:30:08.844Z,101237.37
2023-04-07T08:32:39.274Z,101239.53
2023-04-07T08:35:07.440Z,101236.78
2023-04-07T08:37:36.332Z,101241.72
2023-04-07T08:40:05.509Z,101240.41
2023-04-07T08:42:35.363Z,101237.44
2023-04-07T08:45:06.304Z,101232.81
2023-04-07T08:47:36.180Z,101239.94
2023-04-07T08:50:09.749Z,101236.84
2023-04-07T08:52:49.156Z,101240.56
2023-04-07T08:55:17.212Z,101228.75
2023-04-07T08:57:46.551Z,101237.47
2023-04-07T09:00:15.838Z,101232.41
2023-04-07T09:02:49.691Z,101233.06
2023-04-07T09:05:17.963Z,101241.38
2023-04-07T09:07:45.646Z,101230.97
2023-04-07T09:10:13.540Z,101244.94
2023-04-07T09:12:42.022Z,101237.28
2023-04-07T09:15:10.131Z,101229.75
2023-04-07T09:17:37.984Z,101236.78
2023-04-07T09:20:07.241Z,101233.06
2023-04-07T09:22:45.838Z,101240.66
2023-04-07T09:25:19.339Z,101238.44
2023-04-07T09:28:01.692Z,101233.87
2023-04-07T09:30:31.866Z,101216.09
2023-04-07T09:33:01.641Z,101232.38
2023-04-07T09:35:30.299Z,101226.22
2023-04-07T09:38:08.473Z,101224.19
2023-04-07T09:40:37.889Z,101234.41
2023-04-07T09:43:07.060Z,101226.97
2023-04-07T09:45:39.563Z,101216.19
2023-04-07T09:48:09.164Z,101222.53
2023-04-07T09:50:41.702Z,101219.56
2023-04-07T09:53:09.975Z,101218.06
2023-04-07T09:55:40.212Z,101206.34
2023-04-07T09:58:09.326Z,101215.03
2023-04-07T10:00:38.487Z,101215.72
2023-04-07T10:03:08.121Z,101217.00
2023-04-07T10:05:39.636Z,101222.44
2023-04-07T10:08:07.887Z,101233.94
2023-04-07T10:10:36.907Z,101218.06
2023-04-07T10:13:06.471Z,101217.03
2023-04-07T10:15:35.070Z,101221.09
2023-04-07T10:18:07.793Z,101211.78
2023-04-07T10:20:40.013Z,101216.94
2023-04-07T10:23:22.107Z,101217.72
2023-04-07T10:25:53.057Z,101229.31
2023-04-07T10:28:23.653Z,101221.56
2023-04-07T10:30:52.947Z,101200.78
2023-04-07T10:33:48.109Z,101205.88
2023-04-07T10:36:18.261Z,101207.03
2023-04-07T10:39:07.858Z,101200.56
2023-04-07T10:41:37.989Z,101211.16
2023-04-07T10:44:28.963Z,101206.44
2023-04-07T10:46:57.462Z,101209.63
2023-04-07T10:49:25.315Z,101198.47
2023-04-07T10:52:12.271Z,101195.31
2023-04-07T10:54:41.792Z,101212.25
2023-04-07T10:57:17.311Z,101201.59
2023-04-07T11:00:10.853Z,101210.69
2023-04-07T11:02:40.738Z,101201.28
2023-04-07T11:05:09.360Z,101193.56
2023-04-07T11:07:55.500Z,101210.91
2023-04-07T11:10:23.981Z,101207.63
2023-04-07T11:13:08.900Z,101209.56
2023-04-07T11:15:40.373Z,101207.03
2023-04-07T11:18:19.584Z,101201.66
2023-04-07T11:21:01.226Z,101202.72
2023-04-07T11:23:29.875Z,101199.66
2023-04-07T11:26:02.507Z,101211.12
2023-04-07T11:28:31.764Z,101208.62
2023-04-07T11:31:00.662Z,101193.66
2023-04-07T11:33:31.073Z,101206.19
2023-04-07T11:36:02.109Z,101206.66
2023-04-07T11:38:36.630Z,101193.37
2023-04-07T11:41:13.625Z,101196.78
2023-04-07T11:43:42.677Z,101183.97
2023-04-07T11:46:19.190Z,101198.81
2023-04-07T11:48:47.737Z,101191.50
2023-04-07T11:51:21.283Z,101193.91
2023-04-07T11:53:56.770Z,101191.94
2023-04-07T11:56:25.242Z,101200.56
2023-04-07T11:58:55.357Z,101196.13
2023-04-07T12:01:25.164Z,101189.13
2023-04-07T12:04:02.384Z,101192.50
2023-04-07T12:06:35.251Z,101199.72
2023-04-07T12:09:04.958Z,101201.06
2023-04-07T12:11:33.958Z,101199.97
2023-04-07T12:14:05.361Z,101199.16
2023-04-07T12:16:39.757Z,101203.34
2023-04-07T12:19:07.658Z,101197.13
2023-04-07T12:21:35.816Z,101195.41
2023-04-07T12:24:03.794Z,101191.47
2023-04-07T12:26:31.747Z,101195.16
2023-04-07T12:29:06.249Z,101200.22
2023-04-07T12:31:34.934Z,101190.59
2023-04-07T12:34:03.755Z,101199.72
2023-04-07T12:36:31.773Z,101200.91
2023-04-07T12:39:00.300Z,101192.59
2023-04-07T12:41:28.872Z,101197.22
2023-04-07T12:43:56.834Z,101190.41
2023-04-07T12:46:24.963Z,101190.84
2023-04-07T12:48:53.646Z,101196.09
2023-04-07T12:51:21.518Z,101193.59
2023-04-07T12:53:49.646Z,101188.44
2023-04-07T12:56:17.978Z,101196.53
2023-04-07T12:58:46.260Z,101196.13
2023-04-07T13:01:14.869Z,101201.28
2023-04-07T13:03:43.523Z,101203.19
2023-04-07T13:06:12.001Z,101205.00
2023-04-07T13:08:41.137Z,101207.00
2023-04-07T13:11:09.312Z,101209.19
2023-04-07T13:13:37.096Z,101211.03
2023-04-07T13:16:05.058Z,101209.69
2023-04-07T13:18:33.358Z,101215.91
2023-04-07T13:23:42.076Z,101206.94
2023-04-07T13:26:11.683Z,101206.31
2023-04-07T13:28:39.479Z,101201.78
2023-04-07T13:31:07.958Z,101200.19
2023-04-07T13:33:36.265Z,101198.25
2023-04-07T13:36:04.294Z,101202.06
2023-04-07T13:38:32.197Z,101187.19
2023-04-07T13:41:00.427Z,101179.72
2023-04-07T13:43:28.312Z,101191.94
2023-04-07T13:45:56.979Z,101194.13
2023-04-07T13:48:25.179Z,101191.59
2023-04-07T13:50:52.987Z,101196.13
2023-04-07T13:53:22.102Z,101192.75
2023-04-07T13:55:50.175Z,101190.91
2023-04-07T13:58:18.025Z,101192.28
2023-04-07T14:00:46.053Z,101199.69
2023-04-07T14:03:15.816Z,101196.75
2023-04-07T14:05:43.814Z,101190.53
2023-04-07T14:08:11.705Z,101190.66
2023-04-07T14:10:41.039Z,101190.94
2023-04-07T14:13:08.863Z,101199.09
2023-04-07T14:15:36.791Z,101205.47
2023-04-07T14:18:05.253Z,101194.72
2023-04-07T14:20:34.066Z,101190.19
2023-04-07T14:23:02.018Z,101197.69
2023-04-07T14:25:30.188Z,101200.19
2023-04-07T14:27:58.504Z,101202.69
2023-04-07T14:30:26.469Z,101201.69
2023-04-07T14:32:54.782Z,101199.28
2023-04-07T14:35:22.749Z,101194.47
2023-04-07T14:37:50.639Z,101195.25
2023-04-07T14:40:21.425Z,101202.72
2023-04-07T14:42:49.392Z,101200.75
2023-04-07T14:45:18.155Z,101195.94
2023-04-07T14:47:46.398Z,101203.16
2023-04-07T14:50:14.340Z,101200.13
2023-04-07T14:52:42.245Z,101196.25
2023-04-07T14:55:10.605Z,101197.22
2023-04-07T14:57:39.199Z,101195.84
2023-04-07T15:00:07.929Z,101201.88
2023-04-07T15:02:37.006Z,101197.91
2023-04-07T15:05:05.273Z,101196.37
2023-04-07T15:07:33.030Z,101195.94
2023-04-07T15:10:01.259Z,101192.06
2023-04-07T15:12:31.815Z,101185.94
2023-04-07T15:14:59.558Z,101202.06
2023-04-07T15:17:36.671Z,101196.75
2023-04-07T15:20:22.968Z,101196.25
2023-04-07T15:22:51.074Z,101203.34
2023-04-07T15:25:37.285Z,101198.34
2023-04-07T15:28:05.846Z,101204.25
2023-04-07T15:30:35.870Z,101200.19
2023-04-07T15:33:05.902Z,101204.38
2023-04-07T15:35:33.736Z,101198.81
2023-04-07T15:38:01.629Z,101221.88
2023-04-07T15:40:29.854Z,101199.94
2023-04-07T15:42:57.522Z,101218.19
2023-04-07T15:45:26.075Z,101220.16
2023-04-07T15:47:54.402Z,101218.78
2023-04-07T15:50:23.610Z,101221.91
2023-04-07T15:52:51.515Z,101226.56
2023-04-07T15:55:19.876Z,101240.00
2023-04-07T15:57:47.702Z,101214.78
2023-04-07T16:00:15.744Z,101245.47
2023-04-07T16:02:44.117Z,101241.72
2023-04-07T16:05:11.944Z,101232.94
2023-04-07T16:07:39.771Z,101247.41
2023-04-07T16:10:08.796Z,101252.88
2023-04-07T16:12:38.184Z,101250.25
2023-04-07T16:15:07.653Z,101255.00
2023-04-07T16:17:36.912Z,101249.59
2023-04-07T16:20:05.218Z,101258.03
2023-04-07T16:22:33.111Z,101259.25
2023-04-07T16:25:01.566Z,101250.84
2023-04-07T16:27:30.826Z,101271.03
2023-04-07T16:29:58.646Z,101268.25
2023-04-07T16:32:26.977Z,101275.62
2023-04-07T16:34:54.941Z,101271.75
2023-04-07T16:37:22.840Z,101285.09
2023-04-07T16:39:51.013Z,101276.41
2023-04-07T16:42:18.885Z,101284.22
2023-04-07T16:44:46.857Z,101291.56
2023-04-07T16:47:14.977Z,101291.94
2023-04-07T16:49:42.786Z,101288.00
2023-04-07T16:52:13.340Z,101292.84
2023-04-07T16:54:41.516Z,101297.50
2023-04-07T16:57:09.351Z,101291.06
2023-04-07T16:59:37.204Z,101297.50
2023-04-07T17:02:12.008Z,101295.50
2023-04-07T17:04:41.230Z,101301.16
2023-04-07T17:07:10.581Z,101299.28
2023-04-07T17:09:38.550Z,101299.28
2023-04-07T17:12:06.658Z,101313.00
2023-04-07T17:14:35.086Z,101316.75
2023-04-07T17:17:03.103Z,101316.09
2023-04-07T17:19:30.972Z,101315.13
2023-04-07T17:21:59.226Z,101327.12
2023-04-07T17:24:30.916Z,101323.12
2023-04-07T17:26:59.202Z,101328.22
2023-04-07T17:29:29.344Z,101321.22
2023-04-07T17:31:57.160Z,101327.03
2023-04-07T17:34:25.748Z,101318.66
2023-04-07T17:36:53.621Z,101327.53
2023-04-07T17:39:21.633Z,101320.12
2023-04-07T17:41:49.808Z,101329.78
2023-04-07T17:44:17.739Z,101320.75
2023-04-07T17:46:45.889Z,101333.28
2023-04-07T17:49:14.889Z,101332.94
2023-04-07T17:51:42.895Z,101337.69
2023-04-07T17:54:10.585Z,101341.47
2023-04-07T17:56:39.117Z,101336.91
2023-04-07T17:59:06.977Z,101347.25
2023-04-07T18:01:34.919Z,101349.03
2023-04-07T18:04:05.969Z,101349.66
2023-04-07T18:06:35.468Z,101354.38
2023-04-07T18:09:06.515Z,101363.84
2023-04-07T18:11:34.354Z,101352.19
2023-04-07T18:14:02.452Z,101363.69
2023-04-07T18:16:30.860Z,101359.88
2023-04-07T18:18:58.980Z,101358.63
2023-04-07T18:21:27.497Z,101362.72
2023-04-07T18:23:56.220Z,101359.53
2023-04-07T18:26:24.058Z,101362.50
2023-04-07T18:28:51.935Z,101366.59
2023-04-07T18:31:20.475Z,101364.34
2023-04-07T18:33:48.699Z,101371.22
2023-04-07T18:36:17.346Z,101372.03
2023-04-07T18:38:45.866Z,101374.12
2023-04-07T18:41:14.543Z,101382.75
2023-04-07T18:43:42.698Z,101377.06
2023-04-07T18:46:11.067Z,101373.72
2023-04-07T18:48:39.413Z,101378.00
2023-04-07T18:51:07.806Z,101384.88
2023-04-07T18:53:36.302Z,101382.47
2023-04-07T18:56:04.211Z,101378.72
2023-04-07T18:58:32.224Z,101387.97
2023-04-07T19:01:00.457Z,101382.13
2023-04-07T19:03:28.480Z,101386.88
2023-04-07T19:05:56.955Z,101383.47
2023-04-07T19:08:25.007Z,101395.78
2023-04-07T19:10:52.915Z,101382.25
2023-04-07T19:13:20.989Z,101388.00
2023-04-07T19:15:49.121Z,101387.97
2023-04-07T19:18:16.996Z,101388.63
2023-04-07T19:20:44.872Z,101391.09
2023-04-07T19:23:13.170Z,101395.53
2023-04-07T19:25:44.388Z,101396.34
2023-04-07T19:28:14.060Z,101391.66
2023-04-07T19:30:41.782Z,101388.53
2023-04-07T19:33:10.461Z,101385.75
2023-04-07T19:35:42.602Z,101382.78
2023-04-07T19:38:10.683Z,101383.47
2023-04-07T19:40:38.966Z,101385.13
2023-04-07T19:43:07.451Z,101374.00
2023-04-07T19:45:35.246Z,101391.94
2023-04-07T19:48:03.771Z,101392.31
2023-04-07T19:50:31.907Z,101388.16
2023-04-07T19:52:59.799Z,101391.22
2023-04-07T19:55:28.085Z,101394.31
2023-04-07T19:57:56.053Z,101392.72
2023-04-07T20:00:24.002Z,101392.28
2023-04-07T20:02:52.981Z,101386.03
2023-04-07T20:05:21.111Z,101382.25
2023-04-07T20:07:48.942Z,101388.47
2023-04-07T20:10:17.332Z,101391.25
2023-04-07T20:12:45.216Z,101389.81
2023-04-07T20:15:13.048Z,101387.94
2023-04-07T20:17:41.534Z,101398.41
2023-04-07T20:20:09.823Z,101394.97
2023-04-07T20:22:37.647Z,101392.69
2023-04-07T20:25:06.579Z,101388.97
2023-04-07T20:27:34.724Z,101397.16
2023-04-07T20:30:03.346Z,101390.28
2023-04-07T20:32:31.597Z,101401.50
2023-04-07T20:34:59.517Z,101402.69
2023-04-07T20:37:28.094Z,101400.13
2023-04-07T20:39:56.356Z,101401.28
2023-04-07T20:42:24.235Z,101400.56
2023-04-07T20:44:53.570Z,101402.38
2023-04-07T20:47:22.147Z,101408.12
2023-04-07T20:49:50.085Z,101407.25
2023-04-07T20:52:18.995Z,101382.78
2023-04-07T20:54:48.656Z,101404.66
2023-04-07T20:57:16.595Z,101407.88
2023-04-07T20:59:44.392Z,101408.47
2023-04-07T21:02:12.700Z,101407.81
2023-04-07T21:04:40.874Z,101412.69
2023-04-07T21:07:08.567Z,101413.13
2023-04-07T21:09:36.710Z,101413.72
2023-04-07T21:12:04.666Z,101405.72
2023-04-07T21:14:32.675Z,101412.78
2023-04-07T21:17:00.806Z,101420.25
2023-04-07T21:19:28.757Z,101409.50
2023-04-07T21:21:56.689Z,101411.91
2023-04-07T21:24:24.914Z,101416.25
2023-04-07T21:26:53.759Z,101415.69
2023-04-07T21:29:22.347Z,101417.00
2023-04-07T21:31:51.121Z,101420.81
2023-04-07T21:34:18.971Z,101428.44
2023-04-07T21:36:46.783Z,101410.41
2023-04-07T21:39:15.010Z,101418.53
2023-04-07T21:41:45.512Z,101426.44
2023-04-07T21:44:13.583Z,101416.72
2023-04-07T21:46:41.973Z,101419.31
2023-04-07T21:49:09.789Z,101428.84
2023-04-07T21:51:37.987Z,101413.88
2023-04-07T21:54:06.618Z,101422.94
2023-04-07T21:56:34.453Z,101432.09
2023-04-07T21:59:03.664Z,101427.75
2023-04-07T22:01:32.050Z,101428.78
2023-04-07T22:04:00.445Z,101419.47
2023-04-07T22:06:28.459Z,101430.59
2023-04-07T22:09:01.921Z,101424.25
2023-04-07T22:11:30.794Z,101431.28
2023-04-07T22:13:58.706Z,101421.03
2023-04-07T22:16:26.594Z,101424.66
2023-04-07T22:18:54.988Z,101418.56
2023-04-07T22:21:22.979Z,101416.44
2023-04-07T22:23:50.814Z,101425.19
2023-04-07T22:26:19.070Z,101426.84
2023-04-07T22:28:46.928Z,101423.69
2023-04-07T22:31:14.829Z,101422.94
2023-04-07T22:33:43.110Z,101429.34
2023-04-07T22:36:11.044Z,101425.97
2023-04-07T22:38:38.938Z,101376.44
2023-04-07T22:41:07.005Z,101424.88
2023-04-07T22:43:34.940Z,101403.22
2023-04-07T22:46:02.780Z,101411.66
2023-04-07T22:48:31.138Z,101400.72
2023-04-07T22:50:58.932Z,101424.41
2023-04-07T22:53:26.778Z,101420.56
2023-04-07T22:55:54.993Z,101422.41
2023-04-07T22:58:22.829Z,101422.47
2023-04-07T23:00:50.731Z,101419.94
2023-04-07T23:03:19.023Z,101429.59
2023-04-07T23:05:46.836Z,101422.47
2023-04-07T23:08:14.632Z,101420.22
2023-04-07T23:10:42.869Z,101425.53
2023-04-07T23:13:10.700Z,101427.75
2023-04-07T23:15:38.493Z,101417.84
2023-04-07T23:18:06.912Z,101432.12
2023-04-07T23:20:34.783Z,101424.91
2023-04-07T23:23:02.568Z,101424.53
2023-04-07T23:25:30.879Z,101432.38
2023-04-07T23:27:58.626Z,101424.78
2023-04-07T23:30:26.624Z,101423.72
2023-04-07T23:32:54.836Z,101426.47
2023-04-07T23:35:22.646Z,101427.06
2023-04-07T23:37:50.620Z,101429.63
2023-04-07T23:40:18.978Z,101419.66
2023-04-07T23:42:46.926Z,101422.66
2023-04-07T23:45:14.981Z,101422.19
2023-04-07T23:47:43.253Z,101421.19
2023-04-07T23:50:11.318Z,101420.66
2023-04-07T23:52:39.165Z,101426.50
2023-04-07T23:55:07.720Z,101422.41
2023-04-07T23:57:35.579Z,101417.38
